• Join FlightAware (Why Join?)
  • Login
  • US Flag 
06:48AM EDT


 

Airport Tracker/Info


-or-


 

Live Flight TrackerFlight Track Log ✈ N654DL ✈ 21-Apr-2013 ✈ KSNA - KATL

Flight Track Log - Related Links

Times and Time Zones

All times are in EDT time to prevent confusion due to time zone crossing. See the N654DL flight status page for this flight to view local times or setup timezone preferences in your user account.

Time Position Orientation Groundspeed Altitude Reporting Facility
EDT Latitude Longitude Course Direction KTS MPH feet Rate Location/Type
11:10AM 33.6447 -117.8856 90° East 163 188 1,800  Level Los Angeles Center
11:11AM 33.5986 -117.8939 189° South 165 190 3,600 1,560 Climbing Los Angeles Center
11:12AM 33.5091 -117.6126 54° Northeast  Level FlightAware Approximate
11:12AM 33.5439 -117.8722 162° South 226 260 5,000  Level Los Angeles Center
11:13AM 33.5658 -117.4690 66° East  Level FlightAware Approximate
11:13AM 33.5472 -117.7819 87° East 270 311 7,700  Level Los Angeles Center
11:14AM 33.5833 -117.3137 90° East  Level FlightAware Approximate
11:14AM 33.5594 -117.6881 81° East 282 325 10,300  Level Los Angeles Center
11:15AM 33.5834 -117.1544 90° East  Level FlightAware Approximate
11:15AM 33.5758 -117.5525 82° East 341 392 11,600  Level Los Angeles Center
11:16AM 33.5564 -117.4272 101° East 392 451 13,800 2,100 Climbing Los Angeles Center
11:17AM 33.5092 -117.3056 115° Southeast 403 464 16,000 1,980 Climbing Los Angeles Center
11:18AM 33.5125 -117.1658 88° East 423 487 17,900 1,860 Climbing Los Angeles Center
11:19AM 33.5297 -117.0256 82° East 430 495 19,900 1,800 Climbing Los Angeles Center
11:20AM 33.5453 -116.8789 83° East 436 502 21,600 1,620 Climbing Los Angeles Center
11:21AM 33.5636 -116.7272 82° East 449 517 23,300 1,740 Climbing Los Angeles Center
11:22AM 33.5853 -116.5422 82° East 458 527 25,200 1,440 Climbing Los Angeles Center
11:23AM 33.6039 -116.3828 82° East 472 543 26,300 1,080 Climbing Los Angeles Center
11:24AM 33.6228 -116.2189 82° East 487 560 27,500 1,140 Climbing Los Angeles Center
11:25AM 33.6417 -116.0500 82° East 504 580 28,700 1,260 Climbing Los Angeles Center
11:26AM 33.6611 -115.8844 82° East 503 579 30,100 1,320 Climbing Los Angeles Center
11:27AM 33.6814 -115.7200 82° East 501 577 31,500 1,260 Climbing Los Angeles Center
11:28AM 33.7042 -115.5553 81° East 500 575 32,800 1,200 Climbing Los Angeles Center
11:29AM 33.7311 -115.3931 79° East 495 570 34,000 1,020 Climbing Los Angeles Center
11:30AM 33.7575 -115.2311 79° East 495 570 35,000 840 Climbing Los Angeles Center
11:32AM 33.7919 -115.0350 78° East 500 575 35,800 720 Climbing Los Angeles Center
11:33AM 33.8172 -114.8700 80° East 503 579 36,600 540 Climbing Los Angeles Center
11:34AM 33.8439 -114.7067 79° East 500 575 37,000 180 Climbing Los Angeles Center
11:35AM 33.8711 -114.5428 79° East 499 574 37,000  Level Los Angeles Center
11:36AM 33.8981 -114.3792 79° East 498 573 37,000  Level Los Angeles Center
11:37AM 33.9244 -114.2150 79° East 501 577 37,000  Level Los Angeles Center
11:38AM 33.9497 -114.0492 80° East 503 579 37,000  Level Los Angeles Center
11:39AM 33.9783 -113.8753 79° East 505 581 37,000  Level Albuquerque Center
11:40AM 34.0069 -113.6756 80° East 504 580 37,000  Level Albuquerque Center
11:41AM 34.0325 -113.5086 79° East 507 583 37,000  Level Albuquerque Center
11:42AM 34.0581 -113.3414 80° East 509 586 37,000  Level Albuquerque Center
11:43AM 34.0836 -113.1733 80° East 509 586 37,000  Level Albuquerque Center
11:44AM 34.1078 -113.0064 80° East 507 583 37,000  Level Albuquerque Center
11:45AM 34.1314 -112.8403 80° East 505 581 37,000  Level Albuquerque Center
11:46AM 34.1561 -112.6719 80° East 507 583 37,000  Level Albuquerque Center
11:47AM 34.1792 -112.5061 80° East 502 578 37,000  Level Albuquerque Center
11:48AM 34.2086 -112.3058 80° East 504 580 37,000  Level Albuquerque Center
11:49AM 34.2322 -112.1383 80° East 503 579 37,000  Level Albuquerque Center
11:50AM 34.2550 -111.9711 81° East 501 577 37,000  Level Albuquerque Center
11:51AM 34.2775 -111.8036 81° East 500 575 37,000  Level Albuquerque Center
11:52AM 34.3006 -111.6369 80° East 498 573 37,000  Level Albuquerque Center
11:53AM 34.3236 -111.4708 80° East 498 573 37,000  Level Albuquerque Center
11:54AM 34.3450 -111.3056 81° East 496 571 37,000  Level Albuquerque Center
11:55AM 34.3667 -111.1417 81° East 494 568 37,000  Level Albuquerque Center
11:56AM 34.3883 -110.9775 81° East 494 568 37,000  Level Albuquerque Center
11:57AM 34.4081 -110.8147 82° East 491 565 37,000  Level Albuquerque Center
11:58AM 34.4344 -110.6200 81° East 490 564 37,000  Level Albuquerque Center
11:59AM 34.4553 -110.4578 81° East 488 562 37,000  Level Albuquerque Center
12:00PM 34.4731 -110.3006 82° East 493 567 37,000  Level Albuquerque Center
12:01PM 34.4956 -110.1189 81° East 490 564 37,000  Level Albuquerque Center
12:02PM 34.5147 -109.9617 82° East 491 565 37,000  Level Albuquerque Center
12:03PM 34.5369 -109.7783 82° East 492 566 37,000  Level Albuquerque Center
12:04PM 34.5556 -109.6203 82° East 494 568 37,000  Level Albuquerque Center
12:05PM 34.5775 -109.4347 82° East 498 573 37,000  Level Albuquerque Center
12:07PM 34.5956 -109.2767 82° East 496 571 37,000  Level Albuquerque Center
12:08PM 34.6169 -109.0903 82° East 499 574 37,000  Level Albuquerque Center
12:09PM 34.6344 -108.9308 82° East 500 575 37,000  Level Albuquerque Center
12:10PM 34.6525 -108.7700 82° East 501 577 37,000  Level Albuquerque Center
12:11PM 34.6736 -108.5800 82° East 507 583 37,000  Level Albuquerque Center
12:12PM 34.6922 -108.4161 82° East 505 581 37,000  Level Albuquerque Center
12:13PM 34.7100 -108.2472 83° East 505 581 37,000  Level Albuquerque Center
12:14PM 34.7272 -108.0775 83° East 506 582 37,000  Level Albuquerque Center
12:15PM 34.7447 -107.9075 83° East 507 583 37,000  Level Albuquerque Center
12:16PM 34.7650 -107.7050 83° East 506 582 37,000  Level Albuquerque Center
12:17PM 34.7831 -107.5361 83° East 504 580 37,000  Level Albuquerque Center
12:18PM 34.7986 -107.3650 84° East 508 585 37,000  Level Albuquerque Center
12:19PM 34.8150 -107.1956 83° East 510 587 37,000  Level Albuquerque Center
12:20PM 34.8308 -107.0253 83° East 511 588 37,000  Level Albuquerque Center
12:21PM 34.8506 -106.8447 82° East 513 590 37,000  Level Albuquerque Center
12:22PM 34.8650 -106.6567 85° East 502 578 37,000  Level Albuquerque Center
12:23PM 34.8814 -106.4819 83° East 518 596 37,000  Level Albuquerque Center
12:24PM 34.8961 -106.3108 84° East 514 592 37,000  Level Albuquerque Center
12:25PM 34.9106 -106.1403 84° East 511 588 37,000  Level Albuquerque Center
12:26PM 34.9253 -105.9694 84° East 510 587 37,000  Level Albuquerque Center
12:27PM 34.9442 -105.7625 84° East 509 586 37,000  Level Albuquerque Center
12:28PM 34.9578 -105.5892 84° East 510 587 37,000  Level Albuquerque Center
12:29PM 34.9722 -105.4156 84° East 510 587 37,000  Level Albuquerque Center
12:30PM 34.9869 -105.2419 84° East 512 589 37,000  Level Albuquerque Center
12:31PM 35.0008 -105.0669 84° East 514 592 37,000  Level Albuquerque Center
12:32PM 35.0139 -104.8922 85° East 516 594 37,000  Level Albuquerque Center
12:33PM 35.0306 -104.6864 84° East 520 598 37,000  Level Albuquerque Center
12:34PM 35.0439 -104.5119 85° East 516 594 37,000  Level Albuquerque Center
12:35PM 35.0569 -104.3358 85° East 520 598 37,000  Level Albuquerque Center
12:36PM 35.0706 -104.1492 85° East 522 601 37,000  Level Albuquerque Center
12:37PM 35.0856 -103.9739 84° East 523 602 37,000  Level Albuquerque Center
12:38PM 35.0964 -103.7806 86° East 522 601 37,000  Level Albuquerque Center
12:40PM 35.1092 -103.6033 85° East 522 601 37,000  Level Albuquerque Center
12:41PM 35.1203 -103.4267 86° East 521 600 37,000  Level Albuquerque Center
12:42PM 35.1322 -103.2478 85° East 524 603 37,000  Level Albuquerque Center
12:43PM 35.1439 -103.0703 85° East 521 600 37,000  Level Albuquerque Center
12:44PM 35.1544 -102.8819 86° East 522 601 37,000  Level Albuquerque Center
12:45PM 35.1647 -102.7047 86° East 523 602 37,000  Level Albuquerque Center
12:46PM 35.1744 -102.5283 86° East 522 601 37,000  Level Albuquerque Center
12:47PM 35.1844 -102.3517 86° East 522 601 37,000  Level Albuquerque Center
12:48PM 35.1967 -102.1403 86° East 522 601 37,000  Level Albuquerque Center
12:49PM 35.2050 -101.9694 87° East 524 603 37,000  Level Albuquerque Center
12:50PM 35.2164 -101.7914 85° East 523 602 37,000  Level Albuquerque Center
12:51PM 35.2269 -101.6094 86° East 524 603 37,000  Level Albuquerque Center
12:52PM 35.2364 -101.4311 86° East 525 604 37,000  Level Albuquerque Center
12:53PM 35.2439 -101.2331 87° East 526 605 37,000  Level Albuquerque Center
12:54PM 35.2519 -101.0544 87° East 527 606 37,000  Level Albuquerque Center
12:55PM 35.2608 -100.8761 86° East 527 606 37,000  Level Albuquerque Center
12:56PM 35.2681 -100.6969 87° East 529 609 37,000  Level Albuquerque Center
12:57PM 35.2772 -100.4981 87° East 529 609 37,000  Level Albuquerque Center
12:58PM 35.2839 -100.3169 87° East 532 612 37,000  Level Albuquerque Center
12:59PM 35.2914 -100.1375 87° East 530 610 37,000  Level Albuquerque Center
01:00PM 35.2978 -99.9208 88° East 530 610 37,000  Level Albuquerque Center
01:01PM 35.3053 -99.7403 87° East 532 612 37,000  Level Albuquerque Center
01:02PM 35.3108 -99.5622 88° East 527 606 37,000  Level Albuquerque Center
01:03PM 35.3161 -99.3819 88° East 530 610 37,000  Level Albuquerque Center
01:04PM 35.3200 -99.2378 88° East 531 611 37,000  Level Fort Worth Center
01:05PM 35.3244 -99.0597 88° East 531 611 37,000  Level Fort Worth Center
01:06PM 35.3289 -98.8792 88° East 531 611 37,000  Level Fort Worth Center
01:07PM 35.3350 -98.6986 88° East 531 611 37,000  Level Fort Worth Center
01:08PM 35.3386 -98.5231 89° East 525 604 37,000  Level Fort Worth Center
01:09PM 35.3442 -98.3553 88° East 508 585 37,000  Level Fort Worth Center
01:10PM 35.3475 -98.1797 89° East 508 585 37,000  Level Fort Worth Center
01:11PM 35.3506 -98.0042 89° East 508 585 37,000  Level Fort Worth Center
01:12PM 35.3533 -97.8283 89° East 513 590 37,000  Level Fort Worth Center
01:13PM 35.3558 -97.6528 89° East 513 590 37,000  Level Fort Worth Center
01:14PM 35.3561 -97.4669 90° East 519 597 37,000  Level Fort Worth Center
01:15PM 35.3542 -97.2889 91° East 526 605 37,000 300 Level Fort Worth Center
01:16PM 35.3475 -97.1233 93° East 538 619 37,700 900 Climbing Fort Worth Center
01:17PM 35.3450 -96.9503 91° East 528 608 38,800 600 Climbing Fort Worth Center
01:18PM 35.3422 -96.7825 91° East 507 583 39,000 60 Climbing Fort Worth Center
01:19PM 35.3392 -96.6119 91° East 495 570 39,000  Level Fort Worth Center
01:20PM 35.3358 -96.4439 91° East 495 570 39,000  Level Fort Worth Center
01:21PM 35.3303 -96.2711 92° East 495 570 39,000  Level Fort Worth Center
01:22PM 35.3264 -96.1006 92° East 495 570 39,000  Level Fort Worth Center
01:24PM 35.3194 -95.8178 92° East 484 557 39,000  Level Memphis Center
01:25PM 35.3144 -95.6444 92° East 492 566 39,000  Level Memphis Center
01:26PM 35.3111 -95.4739 91° East 498 573 39,000  Level Memphis Center
01:27PM 35.3056 -95.3031 92° East 498 573 39,000  Level Memphis Center
01:28PM 35.2997 -95.1322 92° East 498 573 39,000  Level Memphis Center
01:29PM 35.2939 -94.9589 92° East 498 573 39,000  Level Memphis Center
01:30PM 35.2875 -94.7856 93° East 498 573 39,000  Level Memphis Center
01:31PM 35.2789 -94.6122 93° East 504 580 39,000  Level Memphis Center
01:32PM 35.2742 -94.4417 92° East 509 586 39,000  Level Memphis Center
01:33PM 35.2672 -94.2708 93° East 509 586 39,000  Level Memphis Center
01:34PM 35.2603 -94.0950 93° East 509 586 39,000  Level Memphis Center
01:35PM 35.2528 -93.9219 93° East 509 586 39,000  Level Memphis Center
01:36PM 35.2450 -93.7486 93° East 509 586 39,000  Level Memphis Center
01:37PM 35.2369 -93.5781 93° East 509 586 39,000  Level Memphis Center
01:38PM 35.2269 -93.4022 94° East 509 586 39,000  Level Memphis Center
01:39PM 35.2189 -93.2114 93° East 498 573 39,000  Level Memphis Center
01:40PM 35.2122 -93.0433 93° East 508 585 39,000  Level Memphis Center
01:41PM 35.2033 -92.8628 93° East 513 590 39,000  Level Memphis Center
01:42PM 35.1886 -92.6489 95° East 526 605 39,000  Level Memphis Center
01:43PM 35.1814 -92.4758 93° East 526 605 39,000  Level Memphis Center
01:44PM 35.1694 -92.3028 95° East 519 597 39,000  Level Memphis Center
01:45PM 35.1617 -92.1275 93° East 519 597 39,000  Level Memphis Center
01:46PM 35.1517 -91.9544 94° East 519 597 39,000  Level Memphis Center
01:47PM 35.1369 -91.7817 96° East 519 597 39,000  Level Memphis Center
01:48PM 35.1264 -91.6086 94° East 519 597 39,000  Level Memphis Center
01:49PM 35.1175 -91.4358 94° East 519 597 39,000  Level Memphis Center
01:50PM 35.1103 -91.2811 93° East 514 592 39,000  Level Memphis Center
01:51PM 35.0989 -91.1058 94° East 519 597 39,000  Level Memphis Center
01:52PM 35.0853 -90.9331 95° East 519 597 39,000  Level Memphis Center
01:53PM 35.0714 -90.7428 95° East 514 592 39,000  Level Memphis Center
01:54PM 35.0614 -90.5678 94° East 514 592 39,000  Level Memphis Center
01:55PM 35.0469 -90.3953 96° East 519 597 39,000  Level Memphis Center
01:56PM 35.0344 -90.2228 95° East 519 597 39,000  Level Memphis Center
01:57PM 35.0236 -90.0503 94° East 519 597 39,000  Level Memphis Center
01:58PM 35.0044 -89.8753 98° East 519 597 39,000  Level Memphis Center
01:59PM 34.9786 -89.7208 101° East 519 597 39,000  Level Memphis Center
02:00PM 34.9547 -89.5464 99° East 524 603 39,000  Level Memphis Center
02:01PM 34.9264 -89.3794 102° East 511 588 39,000  Level Memphis Center
02:02PM 34.8975 -89.1925 101° East 505 581 39,000  Level Memphis Center
02:03PM 34.8708 -89.0231 101° East 510 587 39,000  Level Memphis Center
02:04PM 34.8458 -88.8464 100° East 510 587 39,000 -240 Level Memphis Center
02:05PM 34.8186 -88.6775 101° East 510 587 38,600 -720 Descending Memphis Center
02:06PM 34.7933 -88.5086 100° East 515 593 37,600 -960 Descending Memphis Center
02:07PM 34.7681 -88.3625 102° East 502 578 36,700 -960 Descending Memphis Center
02:08PM 34.7422 -88.1936 100° East 502 578 35,700 -1,080 Descending Memphis Center
02:09PM 34.7117 -88.0100 101° East 505 581 34,600 -1,080 Descending Memphis Center
02:10PM 34.6875 -87.8417 100° East 505 581 33,600 -840 Descending Memphis Center
02:11PM 34.6639 -87.7008 101° East 492 566 33,000 -240 Descending Memphis Center
02:13PM 34.6017 -87.3319 101° East 482 555 33,000  Level Atlanta Center
02:14PM 34.5706 -87.1719 103° East 482 555 33,000  Level Atlanta Center
02:15PM 34.5389 -87.0117 103° East 482 555 33,000  Level Atlanta Center
02:16PM 34.5094 -86.8469 102° East 487 560 33,000 -600 Level Atlanta Center
02:17PM 34.4775 -86.6872 104° East 487 560 31,900 -1,200 Descending Atlanta Center
02:18PM 34.4453 -86.5275 104° East 487 560 30,700 -1,260 Descending Atlanta Center
02:19PM 34.4150 -86.3678 103° East 487 560 29,400 -1,200 Descending Atlanta Center
02:20PM 34.3847 -86.2086 103° East 487 560 28,400 -1,080 Descending Atlanta Center
02:21PM 34.3519 -86.0492 104° East 487 560 27,300 -1,680 Descending Atlanta Center
02:22PM 34.3208 -85.8975 104° East 476 548 25,100 -2,340 Descending Atlanta Center
02:23PM 34.2919 -85.7358 102° East 462 532 22,700 -2,280 Descending Atlanta Center
02:24PM 34.2603 -85.5969 105° East 435 501 20,600 -2,100 Descending Atlanta Center
02:25PM 34.2347 -85.4658 103° East 413 475 18,500 -1,860 Descending Atlanta Center
02:26PM 34.2089 -85.3375 104° East 398 458 16,900 -1,800 Descending Atlanta Center
02:27PM 34.1831 -85.2139 104° East 387 445 15,000 -1,740 Descending Atlanta Center
02:28PM 34.1486 -85.1056 111° Southeast 370 426 13,500 -960 Descending Atlanta Center
02:29PM 34.0931 -85.0297 131° Southeast 318 366 13,100 -600 Descending Atlanta Center
02:30PM 34.0433 -84.9664 133° Southeast 293 337 12,400 -1,200 Descending Atlanta Center
02:31PM 33.9875 -84.8956 134° Southeast 287 330 10,700 -1,560 Descending Atlanta Center
02:32PM 33.9253 -84.8325 140° Southeast 287 330 9,300 -1,140 Descending Atlanta Center
02:33PM 33.8500 -84.8333 181° South 245 282 8,600 -1,080 Descending Atlanta TRACON
02:34PM 33.8000 -84.8333 180° South 227 261 7,300 -1,200 Descending Atlanta TRACON
02:35PM 33.7333 -84.8333 180° South 230 265 6,300 -1,140 Descending Atlanta TRACON
02:36PM 33.6667 -84.8167 168° South 226 260 5,100 -660 Descending Atlanta TRACON
02:37PM 33.6500 -84.7667 112° Southeast 214 246 5,000 -60 Descending Atlanta TRACON
02:38PM 33.6500 -84.7000 90° East 186 214 5,000 -420 Level Atlanta TRACON
02:39PM 33.6500 -84.6333 90° East 180 207 4,200 -900 Descending Atlanta TRACON
02:40PM 33.6500 -84.5667 90° East 167 192 3,300 -900 Descending Atlanta TRACON